Terminal Aerodrome Forecast
Issued by NWS

Home | Current Version | Previous Version | Text Only | Print | Product List | Glossary On
Versions: 1 2 3 4 5 6 7 8 9 10 11 12 13 14 15 16 17
000
FTUS45 KBOI 152334
TAFJER
TAF
KJER 152334Z 1600/1624 07006KT 5SM BR OVC080
     FM160700 23009KT 1/2SM -SN FZFG OVC003
     FM161100 24015G25KT 2SM BR OVC008=

USA.gov is the U.S. government's official web portal to all federal, state and local government web resources and services.